sensor_id;sensor_type;location;lat;lon;timestamp;P1;durP1;ratioP1;P2;durP2;ratioP2
13720;SDS011;6932;51.438;5.470;2023-01-25T00:00:17;36.33;;;24.40;;
13720;SDS011;6932;51.438;5.470;2023-01-25T00:02:43;38.27;;;25.50;;
13720;SDS011;6932;51.438;5.470;2023-01-25T00:05:08;40.30;;;26.83;;
13720;SDS011;6932;51.438;5.470;2023-01-25T00:07:34;39.97;;;26.13;;
13720;SDS011;6932;51.438;5.470;2023-01-25T00:10:00;40.97;;;26.17;;
13720;SDS011;6932;51.438;5.470;2023-01-25T00:12:26;41.83;;;27.07;;
13720;SDS011;6932;51.438;5.470;2023-01-25T00:14:51;39.27;;;25.90;;
13720;SDS011;6932;51.438;5.470;2023-01-25T00:17:17;39.93;;;24.93;;
13720;SDS011;6932;51.438;5.470;2023-01-25T00:19:43;38.90;;;25.23;;
13720;SDS011;6932;51.438;5.470;2023-01-25T00:22:09;39.47;;;26.30;;
13720;SDS011;6932;51.438;5.470;2023-01-25T00:24:34;40.77;;;26.57;;
13720;SDS011;6932;51.438;5.470;2023-01-25T00:27:00;41.00;;;26.50;;
13720;SDS011;6932;51.438;5.470;2023-01-25T00:29:27;47.30;;;27.63;;
13720;SDS011;6932;51.438;5.470;2023-01-25T00:36:51;41.30;;;26.57;;
13720;SDS011;6932;51.438;5.470;2023-01-25T00:39:47;40.63;;;26.23;;
13720;SDS011;6932;51.438;5.470;2023-01-25T00:42:14;40.80;;;26.20;;
13720;SDS011;6932;51.438;5.470;2023-01-25T00:44:43;37.27;;;25.00;;
13720;SDS011;6932;51.438;5.470;2023-01-25T00:47:10;40.80;;;26.53;;
13720;SDS011;6932;51.438;5.470;2023-01-25T00:49:38;39.77;;;26.53;;
13720;SDS011;6932;51.438;5.470;2023-01-25T00:52:06;40.63;;;26.93;;
13720;SDS011;6932;51.438;5.470;2023-01-25T00:54:33;41.83;;;27.43;;
13720;SDS011;6932;51.438;5.470;2023-01-25T00:57:00;44.30;;;29.10;;
13720;SDS011;6932;51.438;5.470;2023-01-25T00:59:28;43.87;;;28.57;;
13720;SDS011;6932;51.438;5.470;2023-01-25T01:01:55;43.63;;;27.70;;
13720;SDS011;6932;51.438;5.470;2023-01-25T01:04:21;43.07;;;27.53;;
13720;SDS011;6932;51.438;5.470;2023-01-25T01:06:51;42.20;;;27.53;;
13720;SDS011;6932;51.438;5.470;2023-01-25T01:09:19;43.10;;;28.27;;
13720;SDS011;6932;51.438;5.470;2023-01-25T01:11:48;43.70;;;27.53;;
13720;SDS011;6932;51.438;5.470;2023-01-25T01:14:14;43.57;;;27.73;;
13720;SDS011;6932;51.438;5.470;2023-01-25T01:16:39;42.13;;;27.00;;
13720;SDS011;6932;51.438;5.470;2023-01-25T01:19:05;40.60;;;26.87;;
13720;SDS011;6932;51.438;5.470;2023-01-25T01:21:31;43.43;;;27.67;;
13720;SDS011;6932;51.438;5.470;2023-01-25T01:23:57;40.27;;;26.23;;
13720;SDS011;6932;51.438;5.470;2023-01-25T01:26:23;41.97;;;27.00;;
13720;SDS011;6932;51.438;5.470;2023-01-25T01:28:49;40.30;;;27.13;;
13720;SDS011;6932;51.438;5.470;2023-01-25T01:31:16;41.87;;;27.00;;
13720;SDS011;6932;51.438;5.470;2023-01-25T01:33:49;42.87;;;28.00;;
13720;SDS011;6932;51.438;5.470;2023-01-25T01:36:18;43.70;;;28.47;;
13720;SDS011;6932;51.438;5.470;2023-01-25T01:38:50;42.53;;;26.90;;
13720;SDS011;6932;51.438;5.470;2023-01-25T01:41:16;44.07;;;28.43;;
13720;SDS011;6932;51.438;5.470;2023-01-25T01:43:42;44.00;;;28.20;;
13720;SDS011;6932;51.438;5.470;2023-01-25T01:49:10;42.13;;;27.93;;
13720;SDS011;6932;51.438;5.470;2023-01-25T01:51:58;45.17;;;29.07;;
13720;SDS011;6932;51.438;5.470;2023-01-25T01:54:37;48.57;;;30.17;;
13720;SDS011;6932;51.438;5.470;2023-01-25T01:57:31;47.47;;;30.57;;
13720;SDS011;6932;51.438;5.470;2023-01-25T02:00:12;47.97;;;30.43;;
13720;SDS011;6932;51.438;5.470;2023-01-25T02:03:01;46.90;;;29.37;;
13720;SDS011;6932;51.438;5.470;2023-01-25T02:05:45;46.93;;;29.90;;
13720;SDS011;6932;51.438;5.470;2023-01-25T02:08:36;45.73;;;29.33;;
13720;SDS011;6932;51.438;5.470;2023-01-25T02:11:04;47.03;;;29.77;;
13720;SDS011;6932;51.438;5.470;2023-01-25T02:13:32;45.23;;;29.13;;
13720;SDS011;6932;51.438;5.470;2023-01-25T02:16:01;45.00;;;28.80;;
13720;SDS011;6932;51.438;5.470;2023-01-25T02:18:28;44.00;;;28.73;;
13720;SDS011;6932;51.438;5.470;2023-01-25T02:20:55;44.93;;;29.43;;
13720;SDS011;6932;51.438;5.470;2023-01-25T02:23:25;47.07;;;30.07;;
13720;SDS011;6932;51.438;5.470;2023-01-25T02:26:14;45.77;;;29.67;;
13720;SDS011;6932;51.438;5.470;2023-01-25T02:28:51;45.33;;;29.10;;
13720;SDS011;6932;51.438;5.470;2023-01-25T02:31:24;46.17;;;28.80;;
13720;SDS011;6932;51.438;5.470;2023-01-25T02:33:50;42.33;;;27.83;;
13720;SDS011;6932;51.438;5.470;2023-01-25T02:38:46;42.70;;;27.13;;
13720;SDS011;6932;51.438;5.470;2023-01-25T02:44:03;44.87;;;29.13;;
13720;SDS011;6932;51.438;5.470;2023-01-25T02:46:35;46.27;;;29.40;;
13720;SDS011;6932;51.438;5.470;2023-01-25T02:49:03;44.73;;;28.37;;
13720;SDS011;6932;51.438;5.470;2023-01-25T02:51:32;46.20;;;28.30;;
13720;SDS011;6932;51.438;5.470;2023-01-25T02:54:02;44.83;;;29.10;;
13720;SDS011;6932;51.438;5.470;2023-01-25T02:56:30;44.77;;;29.17;;
13720;SDS011;6932;51.438;5.470;2023-01-25T02:58:56;43.03;;;28.60;;
13720;SDS011;6932;51.438;5.470;2023-01-25T03:01:22;46.33;;;30.23;;
13720;SDS011;6932;51.438;5.470;2023-01-25T03:03:48;46.17;;;29.23;;
13720;SDS011;6932;51.438;5.470;2023-01-25T03:06:14;47.30;;;30.57;;
13720;SDS011;6932;51.438;5.470;2023-01-25T03:08:40;48.43;;;30.10;;
13720;SDS011;6932;51.438;5.470;2023-01-25T03:11:06;45.73;;;29.17;;
13720;SDS011;6932;51.438;5.470;2023-01-25T03:13:33;47.37;;;29.83;;
13720;SDS011;6932;51.438;5.470;2023-01-25T03:16:01;43.43;;;28.23;;
13720;SDS011;6932;51.438;5.470;2023-01-25T03:18:33;43.03;;;27.27;;
13720;SDS011;6932;51.438;5.470;2023-01-25T03:21:07;45.00;;;28.57;;
13720;SDS011;6932;51.438;5.470;2023-01-25T03:23:37;44.13;;;28.13;;
13720;SDS011;6932;51.438;5.470;2023-01-25T03:26:04;44.60;;;28.23;;
13720;SDS011;6932;51.438;5.470;2023-01-25T03:28:31;42.90;;;27.17;;
13720;SDS011;6932;51.438;5.470;2023-01-25T03:30:57;45.80;;;28.23;;
13720;SDS011;6932;51.438;5.470;2023-01-25T03:33:23;43.27;;;27.37;;
13720;SDS011;6932;51.438;5.470;2023-01-25T03:35:52;42.77;;;27.57;;
13720;SDS011;6932;51.438;5.470;2023-01-25T03:38:19;43.47;;;27.67;;
13720;SDS011;6932;51.438;5.470;2023-01-25T03:40:45;44.57;;;27.43;;
13720;SDS011;6932;51.438;5.470;2023-01-25T03:43:11;44.03;;;28.10;;
13720;SDS011;6932;51.438;5.470;2023-01-25T03:45:37;43.73;;;28.30;;
13720;SDS011;6932;51.438;5.470;2023-01-25T03:48:03;45.43;;;27.53;;
13720;SDS011;6932;51.438;5.470;2023-01-25T03:50:29;42.50;;;27.30;;
13720;SDS011;6932;51.438;5.470;2023-01-25T03:52:56;41.77;;;26.50;;
13720;SDS011;6932;51.438;5.470;2023-01-25T03:55:31;43.90;;;27.33;;
13720;SDS011;6932;51.438;5.470;2023-01-25T03:57:58;44.07;;;27.00;;
13720;SDS011;6932;51.438;5.470;2023-01-25T04:00:24;41.97;;;26.30;;
13720;SDS011;6932;51.438;5.470;2023-01-25T04:02:50;41.17;;;25.80;;
13720;SDS011;6932;51.438;5.470;2023-01-25T04:05:16;44.50;;;27.13;;
13720;SDS011;6932;51.438;5.470;2023-01-25T04:07:42;40.53;;;26.47;;
13720;SDS011;6932;51.438;5.470;2023-01-25T04:10:08;41.80;;;26.03;;
13720;SDS011;6932;51.438;5.470;2023-01-25T04:12:34;42.20;;;26.47;;
13720;SDS011;6932;51.438;5.470;2023-01-25T04:15:00;43.13;;;26.30;;
13720;SDS011;6932;51.438;5.470;2023-01-25T04:17:26;43.13;;;27.73;;
13720;SDS011;6932;51.438;5.470;2023-01-25T04:19:52;42.47;;;27.13;;
13720;SDS011;6932;51.438;5.470;2023-01-25T04:22:17;42.50;;;25.97;;
13720;SDS011;6932;51.438;5.470;2023-01-25T04:24:43;41.03;;;25.90;;
13720;SDS011;6932;51.438;5.470;2023-01-25T04:27:09;41.90;;;25.47;;
13720;SDS011;6932;51.438;5.470;2023-01-25T04:29:35;39.17;;;25.53;;
13720;SDS011;6932;51.438;5.470;2023-01-25T04:32:01;42.13;;;26.57;;
13720;SDS011;6932;51.438;5.470;2023-01-25T04:34:26;44.07;;;27.50;;
13720;SDS011;6932;51.438;5.470;2023-01-25T04:36:52;40.97;;;26.23;;
13720;SDS011;6932;51.438;5.470;2023-01-25T04:39:18;41.43;;;25.80;;
13720;SDS011;6932;51.438;5.470;2023-01-25T04:41:44;40.67;;;26.03;;
13720;SDS011;6932;51.438;5.470;2023-01-25T04:44:10;42.63;;;27.43;;
13720;SDS011;6932;51.438;5.470;2023-01-25T04:46:36;40.10;;;24.77;;
13720;SDS011;6932;51.438;5.470;2023-01-25T04:49:02;40.37;;;25.73;;
13720;SDS011;6932;51.438;5.470;2023-01-25T04:51:27;39.83;;;24.97;;
13720;SDS011;6932;51.438;5.470;2023-01-25T04:53:53;39.27;;;25.00;;
13720;SDS011;6932;51.438;5.470;2023-01-25T04:56:19;38.47;;;24.80;;
13720;SDS011;6932;51.438;5.470;2023-01-25T04:58:44;37.47;;;24.10;;
13720;SDS011;6932;51.438;5.470;2023-01-25T05:01:10;40.23;;;25.53;;
13720;SDS011;6932;51.438;5.470;2023-01-25T05:03:36;40.20;;;25.90;;
13720;SDS011;6932;51.438;5.470;2023-01-25T05:06:02;37.27;;;24.57;;
13720;SDS011;6932;51.438;5.470;2023-01-25T05:08:28;39.03;;;24.93;;
13720;SDS011;6932;51.438;5.470;2023-01-25T05:10:53;39.43;;;24.90;;
13720;SDS011;6932;51.438;5.470;2023-01-25T05:13:19;38.50;;;24.80;;
13720;SDS011;6932;51.438;5.470;2023-01-25T05:15:45;41.80;;;25.90;;
13720;SDS011;6932;51.438;5.470;2023-01-25T05:18:10;36.63;;;23.63;;
13720;SDS011;6932;51.438;5.470;2023-01-25T05:20:36;37.97;;;24.37;;
13720;SDS011;6932;51.438;5.470;2023-01-25T05:23:02;38.80;;;24.60;;
13720;SDS011;6932;51.438;5.470;2023-01-25T05:25:28;38.83;;;24.63;;
13720;SDS011;6932;51.438;5.470;2023-01-25T05:28:12;39.20;;;24.63;;
13720;SDS011;6932;51.438;5.470;2023-01-25T05:30:37;39.80;;;25.67;;
13720;SDS011;6932;51.438;5.470;2023-01-25T05:33:03;39.50;;;25.87;;
13720;SDS011;6932;51.438;5.470;2023-01-25T05:35:29;38.73;;;25.10;;
13720;SDS011;6932;51.438;5.470;2023-01-25T05:37:55;41.83;;;26.77;;
13720;SDS011;6932;51.438;5.470;2023-01-25T05:40:23;39.73;;;25.57;;
13720;SDS011;6932;51.438;5.470;2023-01-25T05:42:56;39.60;;;25.33;;
13720;SDS011;6932;51.438;5.470;2023-01-25T05:45:24;39.53;;;25.87;;
13720;SDS011;6932;51.438;5.470;2023-01-25T05:47:53;40.03;;;25.77;;
13720;SDS011;6932;51.438;5.470;2023-01-25T05:50:22;40.33;;;26.00;;
13720;SDS011;6932;51.438;5.470;2023-01-25T05:52:49;39.67;;;26.23;;
13720;SDS011;6932;51.438;5.470;2023-01-25T05:55:15;40.90;;;26.70;;
13720;SDS011;6932;51.438;5.470;2023-01-25T05:57:42;42.10;;;26.83;;
13720;SDS011;6932;51.438;5.470;2023-01-25T06:00:08;40.40;;;26.00;;
13720;SDS011;6932;51.438;5.470;2023-01-25T06:02:35;40.67;;;26.30;;
13720;SDS011;6932;51.438;5.470;2023-01-25T06:05:02;41.90;;;25.90;;
13720;SDS011;6932;51.438;5.470;2023-01-25T06:07:32;43.00;;;27.13;;
13720;SDS011;6932;51.438;5.470;2023-01-25T06:10:00;40.70;;;25.83;;
13720;SDS011;6932;51.438;5.470;2023-01-25T06:12:27;40.93;;;25.90;;
13720;SDS011;6932;51.438;5.470;2023-01-25T06:14:53;42.80;;;26.63;;
13720;SDS011;6932;51.438;5.470;2023-01-25T06:17:19;41.33;;;25.77;;
13720;SDS011;6932;51.438;5.470;2023-01-25T06:19:44;41.93;;;26.27;;
13720;SDS011;6932;51.438;5.470;2023-01-25T06:22:10;43.10;;;26.93;;
13720;SDS011;6932;51.438;5.470;2023-01-25T06:24:36;42.13;;;26.30;;
13720;SDS011;6932;51.438;5.470;2023-01-25T06:27:02;44.03;;;27.40;;
13720;SDS011;6932;51.438;5.470;2023-01-25T06:29:27;44.73;;;27.50;;
13720;SDS011;6932;51.438;5.470;2023-01-25T06:31:53;44.20;;;27.80;;
13720;SDS011;6932;51.438;5.470;2023-01-25T06:34:19;46.33;;;28.20;;
13720;SDS011;6932;51.438;5.470;2023-01-25T06:36:46;42.43;;;27.37;;
13720;SDS011;6932;51.438;5.470;2023-01-25T06:39:12;43.83;;;27.80;;
13720;SDS011;6932;51.438;5.470;2023-01-25T06:41:38;46.47;;;27.93;;
13720;SDS011;6932;51.438;5.470;2023-01-25T06:44:04;42.97;;;27.23;;
13720;SDS011;6932;51.438;5.470;2023-01-25T06:46:30;43.10;;;26.70;;
13720;SDS011;6932;51.438;5.470;2023-01-25T06:48:57;44.53;;;27.93;;
13720;SDS011;6932;51.438;5.470;2023-01-25T06:51:23;46.40;;;27.70;;
13720;SDS011;6932;51.438;5.470;2023-01-25T06:53:49;43.97;;;28.10;;
13720;SDS011;6932;51.438;5.470;2023-01-25T06:56:16;44.07;;;27.30;;
13720;SDS011;6932;51.438;5.470;2023-01-25T06:58:45;42.17;;;26.17;;
13720;SDS011;6932;51.438;5.470;2023-01-25T07:01:19;41.03;;;26.30;;
13720;SDS011;6932;51.438;5.470;2023-01-25T07:03:51;42.70;;;26.00;;
13720;SDS011;6932;51.438;5.470;2023-01-25T07:06:20;42.80;;;26.33;;
13720;SDS011;6932;51.438;5.470;2023-01-25T07:08:46;42.73;;;26.07;;
13720;SDS011;6932;51.438;5.470;2023-01-25T07:11:12;42.37;;;26.57;;
13720;SDS011;6932;51.438;5.470;2023-01-25T07:13:43;42.40;;;26.37;;
13720;SDS011;6932;51.438;5.470;2023-01-25T07:16:11;44.33;;;27.67;;
13720;SDS011;6932;51.438;5.470;2023-01-25T07:18:44;43.53;;;26.77;;
13720;SDS011;6932;51.438;5.470;2023-01-25T07:21:11;44.37;;;27.93;;
13720;SDS011;6932;51.438;5.470;2023-01-25T07:23:40;40.90;;;25.37;;
13720;SDS011;6932;51.438;5.470;2023-01-25T07:26:13;42.33;;;26.77;;
13720;SDS011;6932;51.438;5.470;2023-01-25T07:28:50;41.97;;;25.13;;
13720;SDS011;6932;51.438;5.470;2023-01-25T07:31:17;43.20;;;26.63;;
13720;SDS011;6932;51.438;5.470;2023-01-25T07:33:51;41.80;;;25.97;;
13720;SDS011;6932;51.438;5.470;2023-01-25T07:36:19;43.80;;;26.60;;
13720;SDS011;6932;51.438;5.470;2023-01-25T07:38:45;43.67;;;27.10;;
13720;SDS011;6932;51.438;5.470;2023-01-25T07:41:12;42.17;;;26.27;;
13720;SDS011;6932;51.438;5.470;2023-01-25T07:43:40;42.17;;;26.27;;
13720;SDS011;6932;51.438;5.470;2023-01-25T07:46:09;43.93;;;27.23;;
13720;SDS011;6932;51.438;5.470;2023-01-25T07:48:37;46.13;;;27.10;;
13720;SDS011;6932;51.438;5.470;2023-01-25T07:51:09;42.47;;;26.20;;
13720;SDS011;6932;51.438;5.470;2023-01-25T07:53:50;43.13;;;26.97;;
13720;SDS011;6932;51.438;5.470;2023-01-25T07:56:20;47.37;;;28.30;;
13720;SDS011;6932;51.438;5.470;2023-01-25T07:58:50;41.77;;;26.77;;
13720;SDS011;6932;51.438;5.470;2023-01-25T08:01:19;42.43;;;26.53;;
13720;SDS011;6932;51.438;5.470;2023-01-25T08:03:48;42.57;;;26.17;;
13720;SDS011;6932;51.438;5.470;2023-01-25T08:06:15;45.73;;;27.10;;
13720;SDS011;6932;51.438;5.470;2023-01-25T08:08:43;42.03;;;26.20;;
13720;SDS011;6932;51.438;5.470;2023-01-25T08:13:45;42.23;;;26.23;;
13720;SDS011;6932;51.438;5.470;2023-01-25T08:16:14;42.33;;;26.30;;
13720;SDS011;6932;51.438;5.470;2023-01-25T08:18:45;44.37;;;27.00;;
13720;SDS011;6932;51.438;5.470;2023-01-25T08:21:12;42.90;;;26.27;;
13720;SDS011;6932;51.438;5.470;2023-01-25T08:23:38;41.90;;;25.43;;
13720;SDS011;6932;51.438;5.470;2023-01-25T08:26:04;42.47;;;26.70;;
13720;SDS011;6932;51.438;5.470;2023-01-25T08:28:32;41.13;;;26.33;;
13720;SDS011;6932;51.438;5.470;2023-01-25T08:33:40;41.60;;;25.67;;
13720;SDS011;6932;51.438;5.470;2023-01-25T08:36:08;42.93;;;25.53;;
13720;SDS011;6932;51.438;5.470;2023-01-25T08:38:35;43.33;;;26.73;;
13720;SDS011;6932;51.438;5.470;2023-01-25T08:41:11;43.77;;;26.17;;
13720;SDS011;6932;51.438;5.470;2023-01-25T08:43:43;43.10;;;26.37;;
13720;SDS011;6932;51.438;5.470;2023-01-25T08:46:10;42.73;;;25.80;;
13720;SDS011;6932;51.438;5.470;2023-01-25T08:48:38;41.23;;;25.83;;
13720;SDS011;6932;51.438;5.470;2023-01-25T08:51:06;43.10;;;25.47;;
13720;SDS011;6932;51.438;5.470;2023-01-25T08:53:35;41.67;;;25.47;;
13720;SDS011;6932;51.438;5.470;2023-01-25T08:56:08;44.20;;;27.07;;
13720;SDS011;6932;51.438;5.470;2023-01-25T08:58:38;45.03;;;26.93;;
13720;SDS011;6932;51.438;5.470;2023-01-25T09:01:08;41.97;;;26.07;;
13720;SDS011;6932;51.438;5.470;2023-01-25T09:03:40;41.97;;;26.20;;
13720;SDS011;6932;51.438;5.470;2023-01-25T09:06:11;43.10;;;26.07;;
13720;SDS011;6932;51.438;5.470;2023-01-25T09:08:38;43.57;;;25.87;;
13720;SDS011;6932;51.438;5.470;2023-01-25T09:11:08;41.63;;;25.37;;
13720;SDS011;6932;51.438;5.470;2023-01-25T09:13:37;43.13;;;26.40;;
13720;SDS011;6932;51.438;5.470;2023-01-25T09:16:04;43.47;;;26.60;;
13720;SDS011;6932;51.438;5.470;2023-01-25T09:18:32;44.13;;;26.43;;
13720;SDS011;6932;51.438;5.470;2023-01-25T09:21:07;43.80;;;25.70;;
13720;SDS011;6932;51.438;5.470;2023-01-25T09:23:36;43.17;;;26.20;;
13720;SDS011;6932;51.438;5.470;2023-01-25T09:26:03;43.67;;;26.87;;
13720;SDS011;6932;51.438;5.470;2023-01-25T09:28:30;43.17;;;26.10;;
13720;SDS011;6932;51.438;5.470;2023-01-25T09:31:01;41.40;;;25.33;;
13720;SDS011;6932;51.438;5.470;2023-01-25T09:33:33;44.27;;;27.37;;
13720;SDS011;6932;51.438;5.470;2023-01-25T09:36:01;42.73;;;25.73;;
13720;SDS011;6932;51.438;5.470;2023-01-25T09:38:28;46.00;;;27.53;;
13720;SDS011;6932;51.438;5.470;2023-01-25T09:40:56;44.23;;;26.70;;
13720;SDS011;6932;51.438;5.470;2023-01-25T09:43:58;44.80;;;27.60;;
13720;SDS011;6932;51.438;5.470;2023-01-25T09:46:47;39.67;;;24.17;;
13720;SDS011;6932;51.438;5.470;2023-01-25T09:49:44;41.50;;;25.20;;
13720;SDS011;6932;51.438;5.470;2023-01-25T09:55:23;39.50;;;25.20;;
13720;SDS011;6932;51.438;5.470;2023-01-25T09:57:53;42.10;;;24.90;;
13720;SDS011;6932;51.438;5.470;2023-01-25T10:00:34;42.20;;;26.13;;
13720;SDS011;6932;51.438;5.470;2023-01-25T10:06:09;41.53;;;24.13;;
13720;SDS011;6932;51.438;5.470;2023-01-25T10:08:41;40.13;;;24.90;;
13720;SDS011;6932;51.438;5.470;2023-01-25T10:11:32;41.00;;;24.00;;
13720;SDS011;6932;51.438;5.470;2023-01-25T10:14:01;42.47;;;25.43;;
13720;SDS011;6932;51.438;5.470;2023-01-25T10:19:24;40.50;;;25.17;;
13720;SDS011;6932;51.438;5.470;2023-01-25T10:22:18;44.97;;;26.67;;
13720;SDS011;6932;51.438;5.470;2023-01-25T10:24:58;41.97;;;24.53;;
13720;SDS011;6932;51.438;5.470;2023-01-25T10:30:32;43.43;;;26.13;;
13720;SDS011;6932;51.438;5.470;2023-01-25T10:33:13;41.67;;;24.57;;
13720;SDS011;6932;51.438;5.470;2023-01-25T10:35:44;43.07;;;25.33;;
13720;SDS011;6932;51.438;5.470;2023-01-25T10:38:35;42.83;;;25.77;;
13720;SDS011;6932;51.438;5.470;2023-01-25T10:43:51;49.50;;;27.50;;
13720;SDS011;6932;51.438;5.470;2023-01-25T10:46:37;44.93;;;26.30;;
13720;SDS011;6932;51.438;5.470;2023-01-25T10:49:13;45.27;;;25.30;;
13720;SDS011;6932;51.438;5.470;2023-01-25T10:52:14;44.83;;;25.43;;
13720;SDS011;6932;51.438;5.470;2023-01-25T10:55:04;46.90;;;26.20;;
13720;SDS011;6932;51.438;5.470;2023-01-25T11:00:23;47.53;;;26.30;;
13720;SDS011;6932;51.438;5.470;2023-01-25T11:02:51;48.27;;;25.97;;
13720;SDS011;6932;51.438;5.470;2023-01-25T11:05:26;44.80;;;25.47;;
13720;SDS011;6932;51.438;5.470;2023-01-25T11:07:54;47.57;;;27.03;;
13720;SDS011;6932;51.438;5.470;2023-01-25T11:10:28;42.97;;;25.77;;
13720;SDS011;6932;51.438;5.470;2023-01-25T11:13:18;45.20;;;26.53;;
13720;SDS011;6932;51.438;5.470;2023-01-25T11:15:46;44.43;;;26.53;;
13720;SDS011;6932;51.438;5.470;2023-01-25T11:18:17;45.30;;;26.20;;
13720;SDS011;6932;51.438;5.470;2023-01-25T11:26:33;42.57;;;25.73;;
13720;SDS011;6932;51.438;5.470;2023-01-25T11:29:25;44.50;;;26.33;;
13720;SDS011;6932;51.438;5.470;2023-01-25T11:31:52;41.60;;;25.23;;
13720;SDS011;6932;51.438;5.470;2023-01-25T11:34:25;44.33;;;26.13;;
13720;SDS011;6932;51.438;5.470;2023-01-25T11:37:03;43.50;;;26.73;;
13720;SDS011;6932;51.438;5.470;2023-01-25T11:42:58;45.87;;;27.17;;
13720;SDS011;6932;51.438;5.470;2023-01-25T11:57:39;43.97;;;24.57;;
13720;SDS011;6932;51.438;5.470;2023-01-25T12:00:25;41.27;;;24.93;;
13720;SDS011;6932;51.438;5.470;2023-01-25T12:03:35;40.27;;;23.53;;
13720;SDS011;6932;51.438;5.470;2023-01-25T12:26:29;39.67;;;24.37;;
13720;SDS011;6932;51.438;5.470;2023-01-25T12:29:27;43.70;;;25.17;;
13720;SDS011;6932;51.438;5.470;2023-01-25T12:32:13;44.30;;;25.27;;
13720;SDS011;6932;51.438;5.470;2023-01-25T12:37:59;43.73;;;24.60;;
13720;SDS011;6932;51.438;5.470;2023-01-25T12:43:35;44.60;;;25.97;;
13720;SDS011;6932;51.438;5.470;2023-01-25T12:46:30;44.20;;;24.57;;
13720;SDS011;6932;51.438;5.470;2023-01-25T12:49:05;42.07;;;24.63;;
13720;SDS011;6932;51.438;5.470;2023-01-25T12:51:51;44.00;;;25.03;;
13720;SDS011;6932;51.438;5.470;2023-01-25T12:54:30;42.90;;;24.93;;
13720;SDS011;6932;51.438;5.470;2023-01-25T12:57:08;44.17;;;26.00;;
13720;SDS011;6932;51.438;5.470;2023-01-25T13:03:22;41.00;;;24.60;;
13720;SDS011;6932;51.438;5.470;2023-01-25T13:08:45;41.67;;;25.33;;
13720;SDS011;6932;51.438;5.470;2023-01-25T13:21:56;41.07;;;24.13;;
13720;SDS011;6932;51.438;5.470;2023-01-25T13:24:25;39.80;;;23.60;;
13720;SDS011;6932;51.438;5.470;2023-01-25T13:27:03;40.17;;;24.13;;
13720;SDS011;6932;51.438;5.470;2023-01-25T13:30:10;42.57;;;25.73;;
13720;SDS011;6932;51.438;5.470;2023-01-25T13:35:40;41.20;;;24.53;;
13720;SDS011;6932;51.438;5.470;2023-01-25T13:41:05;40.53;;;23.23;;
13720;SDS011;6932;51.438;5.470;2023-01-25T13:43:45;39.33;;;24.03;;
13720;SDS011;6932;51.438;5.470;2023-01-25T13:46:15;39.37;;;23.50;;
13720;SDS011;6932;51.438;5.470;2023-01-25T13:48:53;43.33;;;24.90;;
13720;SDS011;6932;51.438;5.470;2023-01-25T13:51:25;39.60;;;23.73;;
13720;SDS011;6932;51.438;5.470;2023-01-25T13:53:57;40.47;;;24.50;;
13720;SDS011;6932;51.438;5.470;2023-01-25T13:56:25;42.17;;;25.43;;
13720;SDS011;6932;51.438;5.470;2023-01-25T13:58:58;43.10;;;24.93;;
13720;SDS011;6932;51.438;5.470;2023-01-25T14:01:25;41.30;;;23.53;;
13720;SDS011;6932;51.438;5.470;2023-01-25T14:03:55;39.80;;;23.67;;
13720;SDS011;6932;51.438;5.470;2023-01-25T14:06:34;41.87;;;24.53;;
13720;SDS011;6932;51.438;5.470;2023-01-25T14:09:17;42.57;;;24.33;;
13720;SDS011;6932;51.438;5.470;2023-01-25T14:15:09;40.43;;;23.40;;
13720;SDS011;6932;51.438;5.470;2023-01-25T14:18:15;41.47;;;24.53;;
13720;SDS011;6932;51.438;5.470;2023-01-25T14:20:44;39.13;;;23.37;;
13720;SDS011;6932;51.438;5.470;2023-01-25T14:23:31;39.73;;;24.43;;
13720;SDS011;6932;51.438;5.470;2023-01-25T14:25:58;44.17;;;25.23;;
13720;SDS011;6932;51.438;5.470;2023-01-25T14:28:25;43.30;;;24.83;;
13720;SDS011;6932;51.438;5.470;2023-01-25T14:30:53;41.13;;;23.90;;
13720;SDS011;6932;51.438;5.470;2023-01-25T14:33:26;39.43;;;23.57;;
13720;SDS011;6932;51.438;5.470;2023-01-25T14:36:08;41.07;;;24.87;;
13720;SDS011;6932;51.438;5.470;2023-01-25T14:38:43;42.37;;;24.03;;
13720;SDS011;6932;51.438;5.470;2023-01-25T14:41:12;40.13;;;24.03;;
13720;SDS011;6932;51.438;5.470;2023-01-25T14:43:56;40.97;;;24.77;;
13720;SDS011;6932;51.438;5.470;2023-01-25T14:46:33;41.70;;;24.60;;
13720;SDS011;6932;51.438;5.470;2023-01-25T14:54:35;41.90;;;24.50;;
13720;SDS011;6932;51.438;5.470;2023-01-25T14:57:46;43.30;;;25.07;;
13720;SDS011;6932;51.438;5.470;2023-01-25T15:00:27;41.33;;;24.17;;
13720;SDS011;6932;51.438;5.470;2023-01-25T15:02:57;44.93;;;25.67;;
13720;SDS011;6932;51.438;5.470;2023-01-25T15:05:29;45.20;;;26.47;;
13720;SDS011;6932;51.438;5.470;2023-01-25T15:10:34;44.60;;;25.63;;
13720;SDS011;6932;51.438;5.470;2023-01-25T15:15:48;44.43;;;25.77;;
13720;SDS011;6932;51.438;5.470;2023-01-25T15:21:11;44.57;;;26.70;;
13720;SDS011;6932;51.438;5.470;2023-01-25T15:23:44;44.50;;;25.97;;
13720;SDS011;6932;51.438;5.470;2023-01-25T15:26:25;45.40;;;26.30;;
13720;SDS011;6932;51.438;5.470;2023-01-25T15:28:54;47.60;;;26.53;;
13720;SDS011;6932;51.438;5.470;2023-01-25T15:31:48;45.37;;;26.13;;
13720;SDS011;6932;51.438;5.470;2023-01-25T15:34:19;42.73;;;25.00;;
13720;SDS011;6932;51.438;5.470;2023-01-25T15:36:49;45.63;;;25.93;;
13720;SDS011;6932;51.438;5.470;2023-01-25T15:39:15;45.07;;;26.17;;
13720;SDS011;6932;51.438;5.470;2023-01-25T15:41:44;45.27;;;25.97;;
13720;SDS011;6932;51.438;5.470;2023-01-25T15:44:11;44.73;;;25.67;;
13720;SDS011;6932;51.438;5.470;2023-01-25T15:46:38;44.67;;;25.50;;
13720;SDS011;6932;51.438;5.470;2023-01-25T15:49:09;43.10;;;25.03;;
13720;SDS011;6932;51.438;5.470;2023-01-25T15:51:44;44.97;;;25.67;;
13720;SDS011;6932;51.438;5.470;2023-01-25T15:54:11;43.57;;;24.63;;
13720;SDS011;6932;51.438;5.470;2023-01-25T15:56:38;44.47;;;25.63;;
13720;SDS011;6932;51.438;5.470;2023-01-25T15:59:07;45.10;;;25.17;;
13720;SDS011;6932;51.438;5.470;2023-01-25T16:01:41;44.93;;;25.93;;
13720;SDS011;6932;51.438;5.470;2023-01-25T16:04:08;45.47;;;25.27;;
13720;SDS011;6932;51.438;5.470;2023-01-25T16:06:44;43.20;;;24.03;;
13720;SDS011;6932;51.438;5.470;2023-01-25T16:11:54;43.67;;;24.37;;
13720;SDS011;6932;51.438;5.470;2023-01-25T16:14:22;46.60;;;26.23;;
13720;SDS011;6932;51.438;5.470;2023-01-25T16:16:54;45.30;;;25.27;;
13720;SDS011;6932;51.438;5.470;2023-01-25T16:19:23;46.10;;;26.63;;
13720;SDS011;6932;51.438;5.470;2023-01-25T16:21:49;42.80;;;24.43;;
13720;SDS011;6932;51.438;5.470;2023-01-25T16:24:16;46.27;;;25.57;;
13720;SDS011;6932;51.438;5.470;2023-01-25T16:27:00;45.50;;;25.47;;
13720;SDS011;6932;51.438;5.470;2023-01-25T16:29:26;46.43;;;25.67;;
13720;SDS011;6932;51.438;5.470;2023-01-25T16:31:52;42.30;;;24.60;;
13720;SDS011;6932;51.438;5.470;2023-01-25T16:34:19;42.70;;;24.43;;
13720;SDS011;6932;51.438;5.470;2023-01-25T16:36:45;45.60;;;25.97;;
13720;SDS011;6932;51.438;5.470;2023-01-25T16:41:45;45.27;;;26.40;;
13720;SDS011;6932;51.438;5.470;2023-01-25T16:44:12;46.60;;;26.03;;
13720;SDS011;6932;51.438;5.470;2023-01-25T16:46:38;47.07;;;26.30;;
13720;SDS011;6932;51.438;5.470;2023-01-25T16:49:04;44.60;;;26.23;;
13720;SDS011;6932;51.438;5.470;2023-01-25T16:51:33;47.73;;;27.50;;
13720;SDS011;6932;51.438;5.470;2023-01-25T16:54:00;44.03;;;24.77;;
13720;SDS011;6932;51.438;5.470;2023-01-25T16:56:30;44.53;;;25.30;;
13720;SDS011;6932;51.438;5.470;2023-01-25T16:58:59;47.07;;;25.63;;
13720;SDS011;6932;51.438;5.470;2023-01-25T17:01:27;44.60;;;25.83;;
13720;SDS011;6932;51.438;5.470;2023-01-25T17:03:53;41.57;;;24.43;;